createdAt,value
2022-11-20T05:00:35.349Z,31.80
2022-11-20T05:11:40.224Z,31.80
2022-11-20T05:22:40.109Z,29.40
2022-11-20T05:33:39.964Z,23.00
2022-11-20T05:44:39.847Z,30.20
2022-11-20T05:55:39.735Z,24.00
2022-11-20T06:06:39.624Z,25.70
2022-11-20T06:17:39.494Z,23.70
2022-11-20T06:28:39.368Z,15.10
2022-11-20T06:39:39.220Z,18.30
2022-11-20T06:50:39.099Z,21.90
2022-11-20T07:01:38.980Z,25.00
2022-11-20T07:12:38.883Z,23.80
2022-11-20T07:23:38.759Z,21.20
2022-11-20T07:34:38.620Z,14.30
2022-11-20T07:45:38.489Z,27.10
2022-11-20T07:56:38.376Z,20.30
2022-11-20T08:07:38.292Z,28.20
2022-11-20T08:18:38.129Z,25.10
2022-11-20T08:29:38.025Z,28.30
2022-11-20T08:40:37.871Z,26.50
2022-11-20T08:51:37.741Z,19.00
2022-11-20T09:02:37.634Z,26.30
2022-11-20T09:13:37.488Z,31.10
2022-11-20T09:24:37.365Z,25.50
2022-11-20T09:35:37.262Z,28.60
2022-11-20T09:46:37.423Z,37.50
2022-11-20T09:57:37.024Z,37.00
2022-11-20T10:08:36.873Z,43.50
2022-11-20T10:19:36.738Z,51.00
2022-11-20T10:30:36.619Z,30.60
2022-11-20T10:41:37.270Z,49.50
2022-11-20T10:52:36.400Z,39.40
2022-11-20T11:03:36.309Z,50.20
2022-11-20T11:14:36.115Z,41.50
2022-11-20T11:25:36.986Z,36.40
2022-11-20T11:36:35.863Z,31.10
2022-11-20T11:47:35.770Z,23.60
2022-11-20T11:58:35.644Z,16.80
2022-11-20T12:09:35.507Z,19.20
2022-11-20T12:20:35.374Z,21.20
2022-11-20T12:31:35.254Z,12.80
2022-11-20T12:42:35.122Z,12.50
2022-11-20T12:53:35.019Z,6.80
2022-11-20T13:04:34.884Z,3.30
2022-11-20T13:15:34.771Z,4.40
2022-11-20T13:26:34.624Z,3.70
2022-11-20T13:37:34.492Z,6.50
2022-11-20T13:48:34.366Z,4.40
2022-11-20T13:59:34.249Z,6.20
2022-11-20T14:10:34.116Z,1.80
2022-11-20T14:21:34.117Z,5.80
2022-11-20T14:32:33.925Z,1.90
2022-11-20T14:43:33.775Z,4.90
2022-11-20T14:54:33.621Z,1.50
2022-11-20T15:05:33.500Z,9.70
2022-11-20T15:16:33.375Z,2.30
2022-11-20T15:27:33.269Z,1.60
2022-11-20T15:38:33.126Z,2.10
2022-11-20T15:49:32.997Z,9.50
2022-11-20T16:00:32.872Z,1.90
2022-11-20T16:11:32.747Z,3.50
2022-11-20T16:22:32.679Z,1.90
2022-11-20T16:33:32.511Z,5.10
2022-11-20T16:44:32.377Z,2.60
2022-11-20T16:55:32.248Z,5.20
2022-11-20T17:06:32.126Z,5.70
2022-11-20T17:17:31.999Z,5.80
2022-11-20T17:28:31.877Z,3.00
2022-11-20T17:39:31.771Z,3.50
2022-11-20T17:50:31.658Z,2.00
2022-11-20T18:01:31.590Z,5.30
2022-11-20T18:12:31.384Z,2.30
2022-11-20T18:23:31.266Z,2.00
2022-11-20T18:34:31.136Z,2.90
2022-11-20T18:45:31.017Z,1.80
2022-11-20T18:56:30.893Z,1.30
2022-11-20T19:07:30.796Z,2.30
2022-11-20T19:18:30.645Z,1.90
2022-11-20T19:29:30.516Z,1.90
2022-11-20T19:40:30.385Z,1.40
2022-11-20T19:51:30.288Z,1.70
2022-11-20T20:02:30.138Z,1.90
2022-11-20T20:13:30.011Z,4.90
2022-11-20T20:24:29.890Z,2.60
2022-11-20T20:35:29.781Z,1.80
2022-11-20T20:46:29.637Z,1.80
2022-11-20T20:57:29.527Z,1.80
2022-11-20T21:08:29.393Z,7.40
2022-11-20T21:19:29.269Z,1.60
2022-11-20T21:30:29.141Z,3.30
2022-11-20T21:41:29.018Z,1.70
2022-11-20T21:52:28.904Z,3.50
